Howardstown, Kentucky
Current Conditions -  °F | °C
As of 4:13 AM on Friday 31 Oct 2014 (Local Time) from KFTK Reporting Station
Light Rain Light Rain  
Wind Chill: 44°   Ceiling: 6000
Heat Index: 46°   Visibility: 10mi
Dew Point: 41°   Wind: 5mph
Humidity: 81%   Direction: 330°NNW
Pressure: 30"   Gusts: NA
Location:  37.6609°N, 85.573°W
Report Text: KFTK 310813Z AUTO 33004KT 10SM -RA FEW030 BKN060 BKN080 08/05 A3000 RMK AO2 RAB0814
Loading
Personal Weather Stations






























Interactive Weather Map
Tropical Storm Tracking
New forecast layout! Learn more

10-Day Weather Forecast

Advertisements
Track Severe Weather on mobile